Time;durP1;ratioP1;P1;durP2;ratioP2;P2;SDS_P1;SDS_P2;PMS_P1;PMS_P2;Temp;Humidity;BMP_temperature;BMP_pressure;BME280_temperature;BME280_humidity;BME280_pressure;Samples;Min_cycle;Max_cycle;Signal;HPM_P1;HPM_P2
2021/10/11 00:01:10;;;;;;;16.85;8.10;;;;;;;;;;5119416;28;20050;-81
2021/10/11 00:03:35;;;;;;;27.75;7.82;;;;;;;;;;5118216;28;20035;-82
2021/10/11 00:06:01;;;;;;;17.40;9.57;;;;;;;;;;5118636;28;20106;-80
2021/10/11 00:08:26;;;;;;;18.48;6.90;;;;;;;;;;5117604;28;20043;-81
2021/10/11 00:10:52;;;;;;;100.35;8.98;;;;;;;;;;5118377;28;20081;-81
2021/10/11 00:13:19;;;;;;;16.08;8.30;;;;;;;;;;5120751;28;20076;-80
2021/10/11 00:15:45;;;;;;;25.58;11.80;;;;;;;;;;5120550;28;20036;-81
2021/10/11 00:18:10;;;;;;;49.88;10.40;;;;;;;;;;5121098;28;20038;-81
2021/10/11 00:20:36;;;;;;;23.35;10.18;;;;;;;;;;5122451;28;20050;-82
2021/10/11 00:23:01;;;;;;;16.77;9.25;;;;;;;;;;5123429;27;20031;-81
2021/10/11 00:25:27;;;;;;;20.58;11.80;;;;;;;;;;5111240;28;20039;-82
2021/10/11 00:27:52;;;;;;;16.27;9.88;;;;;;;;;;5102426;28;20043;-81
2021/10/11 00:30:17;;;;;;;22.05;9.13;;;;;;;;;;5102068;28;20126;-81
2021/10/11 00:32:43;;;;;;;15.20;9.13;;;;;;;;;;5102499;28;20099;-81
2021/10/11 00:35:09;;;;;;;19.63;9.07;;;;;;;;;;5102559;28;20043;-81
2021/10/11 00:37:35;;;;;;;12.10;7.95;;;;;;;;;;5101562;28;20113;-81
2021/10/11 00:40:00;;;;;;;13.73;7.63;;;;;;;;;;5086427;28;20048;-82
2021/10/11 00:42:26;;;;;;;15.73;6.70;;;;;;;;;;5081765;28;20032;-81
2021/10/11 00:44:51;;;;;;;15.90;7.22;;;;;;;;;;5082119;28;20038;-81
2021/10/11 00:47:16;;;;;;;9.75;6.47;;;;;;;;;;5081147;28;20120;-81
2021/10/11 00:49:42;;;;;;;34.10;6.95;;;;;;;;;;5080285;28;20641;-82
2021/10/11 00:52:07;;;;;;;9.75;6.68;;;;;;;;;;5079776;28;20100;-81
2021/10/11 00:54:33;;;;;;;23.38;7.18;;;;;;;;;;5080134;28;20051;-81
2021/10/11 00:56:59;;;;;;;16.55;7.63;;;;;;;;;;5080817;28;20029;-81
2021/10/11 00:59:24;;;;;;;10.55;7.28;;;;;;;;;;5079223;28;20031;-81
2021/10/11 01:01:50;;;;;;;16.17;7.63;;;;;;;;;;5079224;28;20025;-81
2021/10/11 01:04:15;;;;;;;24.60;8.05;;;;;;;;;;5079969;28;20086;-80
2021/10/11 01:06:42;;;;;;;15.90;8.82;;;;;;;;;;5080108;28;20041;-81
2021/10/11 01:09:10;;;;;;;38.42;13.07;;;;;;;;;;5093544;28;20114;-80
2021/10/11 01:11:36;;;;;;;16.63;9.25;;;;;;;;;;5120250;28;20063;-81
2021/10/11 01:14:03;;;;;;;21.58;8.95;;;;;;;;;;5120532;28;20055;-80
2021/10/11 01:16:28;;;;;;;68.03;9.48;;;;;;;;;;5120100;28;20500;-81
2021/10/11 01:18:55;;;;;;;74.93;9.48;;;;;;;;;;5117899;27;20036;-81
2021/10/11 01:21:21;;;;;;;86.97;10.57;;;;;;;;;;5118473;28;20031;-80
2021/10/11 01:23:46;;;;;;;17.15;10.60;;;;;;;;;;5116879;28;20377;-83
2021/10/11 01:26:12;;;;;;;47.63;10.63;;;;;;;;;;5120667;28;20030;-82
2021/10/11 01:28:37;;;;;;;18.77;8.88;;;;;;;;;;5121096;28;20501;-81
2021/10/11 01:31:03;;;;;;;28.40;9.98;;;;;;;;;;5121714;28;20096;-81
2021/10/11 01:33:28;;;;;;;25.25;10.07;;;;;;;;;;5120543;28;20042;-81
2021/10/11 01:35:54;;;;;;;17.50;9.45;;;;;;;;;;5120706;27;20070;-81
2021/10/11 01:38:19;;;;;;;40.45;10.27;;;;;;;;;;5119959;28;20078;-82
2021/10/11 01:40:45;;;;;;;13.60;8.98;;;;;;;;;;5120006;28;20043;-81
2021/10/11 01:43:10;;;;;;;16.13;9.25;;;;;;;;;;5091444;28;20474;-81
2021/10/11 01:45:36;;;;;;;17.65;9.00;;;;;;;;;;5079571;28;20036;-81
2021/10/11 01:48:04;;;;;;;12.63;8.77;;;;;;;;;;5078959;28;20643;-81
2021/10/11 01:50:31;;;;;;;13.40;9.02;;;;;;;;;;5078999;28;20060;-81
2021/10/11 01:52:56;;;;;;;14.77;9.18;;;;;;;;;;5077395;28;20032;-82
2021/10/11 01:55:22;;;;;;;11.93;8.85;;;;;;;;;;5080657;28;20127;-82
2021/10/11 01:57:47;;;;;;;14.52;9.05;;;;;;;;;;5081086;28;20040;-82
2021/10/11 02:00:13;;;;;;;16.08;8.48;;;;;;;;;;5081050;28;20024;-81
2021/10/11 02:02:39;;;;;;;13.52;9.00;;;;;;;;;;5081247;28;20390;-81
2021/10/11 02:05:06;;;;;;;12.80;7.93;;;;;;;;;;5080024;28;20028;-82
2021/10/11 02:07:32;;;;;;;13.35;8.65;;;;;;;;;;5080479;28;20108;-81
2021/10/11 02:09:57;;;;;;;17.95;8.77;;;;;;;;;;5087565;28;20059;-81
2021/10/11 02:12:22;;;;;;;20.58;9.52;;;;;;;;;;5100132;28;20039;-80
2021/10/11 02:14:48;;;;;;;14.55;7.70;;;;;;;;;;5101004;28;20081;-78
2021/10/11 02:17:17;;;;;;;12.98;8.88;;;;;;;;;;5100524;28;20040;-81
2021/10/11 02:19:42;;;;;;;13.13;9.00;;;;;;;;;;5099305;28;20552;-82
2021/10/11 02:22:08;;;;;;;12.52;8.85;;;;;;;;;;5100064;28;20055;-82
2021/10/11 02:24:34;;;;;;;12.43;8.95;;;;;;;;;;5101672;28;20036;-83
2021/10/11 02:26:59;;;;;;;14.30;9.18;;;;;;;;;;5106052;28;20040;-83
2021/10/11 02:29:26;;;;;;;14.05;9.15;;;;;;;;;;5107989;28;20036;-83
2021/10/11 02:31:51;;;;;;;17.05;9.20;;;;;;;;;;5112140;28;20040;-84
2021/10/11 02:34:17;;;;;;;12.23;8.75;;;;;;;;;;5117399;28;20037;-85
2021/10/11 02:36:42;;;;;;;12.80;9.20;;;;;;;;;;5112714;28;20069;-84
2021/10/11 02:39:08;;;;;;;14.30;9.18;;;;;;;;;;5108171;28;20055;-83
2021/10/11 02:41:35;;;;;;;11.48;8.68;;;;;;;;;;5107542;28;20036;-82
2021/10/11 02:44:00;;;;;;;12.63;8.57;;;;;;;;;;5110427;28;20066;-83
2021/10/11 02:46:25;;;;;;;16.88;8.63;;;;;;;;;;5108594;28;20028;-83
2021/10/11 02:48:51;;;;;;;13.43;9.13;;;;;;;;;;5109403;28;20032;-82
2021/10/11 02:51:16;;;;;;;15.65;9.75;;;;;;;;;;5109289;28;20524;-78
2021/10/11 02:53:42;;;;;;;14.82;9.57;;;;;;;;;;5103398;28;20024;-86
2021/10/11 02:56:07;;;;;;;12.73;9.15;;;;;;;;;;5107581;28;20047;-85
2021/10/11 02:58:33;;;;;;;24.58;9.50;;;;;;;;;;5104714;28;20115;-85
2021/10/11 03:00:58;;;;;;;17.02;10.25;;;;;;;;;;5108801;28;20091;-81
2021/10/11 03:03:23;;;;;;;17.95;10.65;;;;;;;;;;5110768;28;20079;-82
2021/10/11 03:05:51;;;;;;;13.10;9.70;;;;;;;;;;5107794;28;20063;-80
2021/10/11 03:08:24;;;;;;;13.27;10.00;;;;;;;;;;5104544;28;20454;-80
2021/10/11 03:10:49;;;;;;;16.30;9.73;;;;;;;;;;5103930;28;20039;-80
2021/10/11 03:13:15;;;;;;;14.10;10.32;;;;;;;;;;5105851;28;20040;-80
2021/10/11 03:15:40;;;;;;;13.20;9.40;;;;;;;;;;5106570;28;20043;-80
2021/10/11 03:18:05;;;;;;;13.05;8.85;;;;;;;;;;5105585;28;20035;-80
2021/10/11 03:20:31;;;;;;;14.65;9.30;;;;;;;;;;5106301;28;20035;-80
2021/10/11 03:22:56;;;;;;;11.60;8.80;;;;;;;;;;5106051;28;20036;-80
2021/10/11 03:25:21;;;;;;;13.15;9.07;;;;;;;;;;5105991;28;20032;-80
2021/10/11 03:27:47;;;;;;;13.23;9.50;;;;;;;;;;5106485;28;20055;-80
2021/10/11 03:30:12;;;;;;;14.95;9.77;;;;;;;;;;5106079;28;20063;-80
2021/10/11 03:32:37;;;;;;;12.85;9.10;;;;;;;;;;5106070;28;20040;-79
2021/10/11 03:35:03;;;;;;;14.15;9.35;;;;;;;;;;5105356;28;20047;-79
2021/10/11 03:37:28;;;;;;;16.52;9.50;;;;;;;;;;5104888;28;20127;-79
2021/10/11 03:39:54;;;;;;;12.68;9.25;;;;;;;;;;5103810;28;20474;-79
2021/10/11 03:42:19;;;;;;;14.35;9.00;;;;;;;;;;5106030;28;20039;-79
2021/10/11 03:44:45;;;;;;;13.65;8.82;;;;;;;;;;5105043;28;20122;-79
2021/10/11 03:47:10;;;;;;;13.60;9.45;;;;;;;;;;5108357;28;20105;-79
2021/10/11 03:49:35;;;;;;;14.57;10.30;;;;;;;;;;5108905;28;20036;-80
2021/10/11 03:52:01;;;;;;;12.27;9.55;;;;;;;;;;5105756;28;20024;-79
2021/10/11 03:54:26;;;;;;;14.93;9.50;;;;;;;;;;5108539;28;20044;-79
2021/10/11 03:56:51;;;;;;;13.48;9.75;;;;;;;;;;5106723;28;20091;-80
2021/10/11 03:59:17;;;;;;;15.55;10.10;;;;;;;;;;5107240;28;20068;-79
2021/10/11 04:01:42;;;;;;;26.17;9.38;;;;;;;;;;5107110;28;20429;-79
2021/10/11 04:04:08;;;;;;;13.25;9.80;;;;;;;;;;5107605;28;20071;-79
2021/10/11 04:06:33;;;;;;;13.77;9.90;;;;;;;;;;5108086;28;20032;-79
2021/10/11 04:09:00;;;;;;;14.57;10.60;;;;;;;;;;5106696;28;20039;-79
2021/10/11 04:11:25;;;;;;;14.00;9.82;;;;;;;;;;5098606;28;20029;-80
2021/10/11 04:13:51;;;;;;;14.13;10.05;;;;;;;;;;5086635;28;20070;-79
2021/10/11 04:16:17;;;;;;;16.42;10.55;;;;;;;;;;5087261;28;20041;-79
2021/10/11 04:18:43;;;;;;;13.25;8.98;;;;;;;;;;5089763;28;20036;-79
2021/10/11 04:21:08;;;;;;;12.63;9.32;;;;;;;;;;5094800;28;20108;-79
2021/10/11 04:23:36;;;;;;;13.27;10.45;;;;;;;;;;5093149;28;20056;-79
2021/10/11 04:26:01;;;;;;;11.68;9.02;;;;;;;;;;5096903;28;20037;-79
2021/10/11 04:28:27;;;;;;;13.43;9.05;;;;;;;;;;5093248;28;20169;-80
2021/10/11 04:30:52;;;;;;;16.00;8.68;;;;;;;;;;5092543;28;20058;-79
2021/10/11 04:33:18;;;;;;;12.82;8.68;;;;;;;;;;5093002;28;20082;-79
2021/10/11 04:35:45;;;;;;;14.18;10.15;;;;;;;;;;5092975;28;20044;-80
2021/10/11 04:38:11;;;;;;;10.57;8.27;;;;;;;;;;5087027;28;20032;-77
2021/10/11 04:40:36;;;;;;;12.50;8.85;;;;;;;;;;5101684;28;20042;-77
2021/10/11 04:43:02;;;;;;;12.60;8.93;;;;;;;;;;5106805;28;20043;-78
2021/10/11 04:45:29;;;;;;;12.43;9.10;;;;;;;;;;5106567;28;20131;-78
2021/10/11 04:47:59;;;;;;;15.80;9.50;;;;;;;;;;5106042;28;20478;-79
2021/10/11 04:50:26;;;;;;;10.60;7.82;;;;;;;;;;5105740;28;20039;-80
2021/10/11 04:52:51;;;;;;;14.20;9.65;;;;;;;;;;5106910;28;20036;-79
2021/10/11 04:55:16;;;;;;;12.95;8.65;;;;;;;;;;5105100;28;20047;-80
2021/10/11 04:57:42;;;;;;;11.10;8.13;;;;;;;;;;5105643;28;20044;-81
2021/10/11 05:00:08;;;;;;;10.98;7.95;;;;;;;;;;5108633;28;20078;-80
2021/10/11 05:02:33;;;;;;;14.98;8.45;;;;;;;;;;5108606;28;20032;-81
2021/10/11 05:04:59;;;;;;;13.80;8.57;;;;;;;;;;5108002;28;20040;-80
2021/10/11 05:07:24;;;;;;;12.20;8.57;;;;;;;;;;5108978;28;20040;-80
2021/10/11 05:09:49;;;;;;;12.63;8.45;;;;;;;;;;5107974;28;20089;-80
2021/10/11 05:12:15;;;;;;;10.02;7.55;;;;;;;;;;5109034;28;20051;-80
2021/10/11 05:14:40;;;;;;;10.68;7.88;;;;;;;;;;5106669;28;20383;-80
2021/10/11 05:17:05;;;;;;;13.32;8.10;;;;;;;;;;5108019;28;20031;-80
2021/10/11 05:19:31;;;;;;;10.45;7.47;;;;;;;;;;5106962;28;20476;-80
2021/10/11 05:21:57;;;;;;;10.57;7.65;;;;;;;;;;5108739;28;20029;-80
2021/10/11 05:24:25;;;;;;;10.23;7.90;;;;;;;;;;5106052;28;20062;-80
2021/10/11 05:26:52;;;;;;;9.90;7.35;;;;;;;;;;5106963;28;20044;-80
2021/10/11 05:29:18;;;;;;;10.48;7.75;;;;;;;;;;5103821;28;20046;-80
2021/10/11 05:31:44;;;;;;;11.73;8.45;;;;;;;;;;5106378;28;20039;-80
2021/10/11 05:34:09;;;;;;;11.75;8.70;;;;;;;;;;5106288;28;20385;-80
2021/10/11 05:36:35;;;;;;;10.23;7.45;;;;;;;;;;5103998;28;20039;-81
2021/10/11 05:39:00;;;;;;;13.00;8.95;;;;;;;;;;5104558;28;20127;-80
2021/10/11 05:41:26;;;;;;;11.85;8.25;;;;;;;;;;5105828;28;20482;-80
2021/10/11 05:43:51;;;;;;;16.42;9.63;;;;;;;;;;5106833;28;20020;-80
2021/10/11 05:46:17;;;;;;;15.98;9.40;;;;;;;;;;5104819;28;20038;-79
2021/10/11 05:48:42;;;;;;;16.10;10.43;;;;;;;;;;5104293;28;20048;-80
2021/10/11 05:51:07;;;;;;;12.13;8.40;;;;;;;;;;5109228;28;20047;-80
2021/10/11 05:53:33;;;;;;;13.15;9.05;;;;;;;;;;5110473;28;20103;-79
2021/10/11 05:55:58;;;;;;;13.77;9.73;;;;;;;;;;5116261;28;20044;-80
2021/10/11 05:58:23;;;;;;;12.88;9.57;;;;;;;;;;5114924;28;20047;-80
2021/10/11 06:00:49;;;;;;;13.23;9.32;;;;;;;;;;5114248;28;20074;-80
2021/10/11 06:03:14;;;;;;;12.30;9.65;;;;;;;;;;5112969;28;20024;-80
2021/10/11 06:05:39;;;;;;;12.23;9.30;;;;;;;;;;5113160;28;20469;-81
2021/10/11 06:08:05;;;;;;;12.80;9.00;;;;;;;;;;5109172;28;20047;-81
2021/10/11 06:10:30;;;;;;;11.82;8.93;;;;;;;;;;5108627;28;20028;-80
2021/10/11 06:12:56;;;;;;;12.23;8.88;;;;;;;;;;5110434;28;20036;-80
2021/10/11 06:15:21;;;;;;;13.02;9.15;;;;;;;;;;5110875;28;20040;-80
2021/10/11 06:17:47;;;;;;;15.27;9.70;;;;;;;;;;5109292;28;20040;-80
2021/10/11 06:20:12;;;;;;;12.18;9.07;;;;;;;;;;5102768;28;20409;-77
2021/10/11 06:22:38;;;;;;;14.90;9.30;;;;;;;;;;5096471;28;20044;-80
2021/10/11 06:25:04;;;;;;;14.10;9.00;;;;;;;;;;5100580;28;20043;-80
2021/10/11 06:27:31;;;;;;;13.40;8.77;;;;;;;;;;5102526;28;20096;-79
2021/10/11 06:29:56;;;;;;;13.68;9.93;;;;;;;;;;5100326;28;20043;-80
2021/10/11 06:32:22;;;;;;;12.77;9.88;;;;;;;;;;5099582;28;20036;-81
2021/10/11 06:34:48;;;;;;;17.65;9.73;;;;;;;;;;5098851;28;20078;-81
2021/10/11 06:37:13;;;;;;;12.20;9.18;;;;;;;;;;5098223;28;20031;-80
2021/10/11 06:39:38;;;;;;;14.35;9.30;;;;;;;;;;5110654;28;20099;-80
2021/10/11 06:42:04;;;;;;;12.70;9.88;;;;;;;;;;5118552;28;20044;-80
2021/10/11 06:44:31;;;;;;;12.43;10.00;;;;;;;;;;5115641;28;20038;-80
2021/10/11 06:46:56;;;;;;;10.77;8.40;;;;;;;;;;5118035;28;20040;-80
2021/10/11 06:49:21;;;;;;;13.95;9.35;;;;;;;;;;5119222;28;20046;-81
2021/10/11 06:51:47;;;;;;;12.40;8.80;;;;;;;;;;5117838;28;20051;-79
2021/10/11 06:54:12;;;;;;;16.45;9.98;;;;;;;;;;5118241;28;20071;-80
2021/10/11 06:56:37;;;;;;;12.60;9.13;;;;;;;;;;5106902;28;20036;-81
2021/10/11 06:59:03;;;;;;;14.98;10.32;;;;;;;;;;5097074;28;20069;-81
2021/10/11 07:01:29;;;;;;;12.50;9.05;;;;;;;;;;5094115;28;20040;-77
2021/10/11 07:03:55;;;;;;;12.23;8.95;;;;;;;;;;5094965;28;20088;-78
2021/10/11 07:06:21;;;;;;;17.58;9.85;;;;;;;;;;5094198;28;20036;-77
2021/10/11 07:08:47;;;;;;;13.00;10.07;;;;;;;;;;5095755;28;20044;-81
2021/10/11 07:11:13;;;;;;;18.73;11.63;;;;;;;;;;5097305;28;20042;-80
2021/10/11 07:13:38;;;;;;;14.90;10.15;;;;;;;;;;5096266;28;20032;-79
2021/10/11 07:16:05;;;;;;;15.02;10.52;;;;;;;;;;5093364;28;20032;-79
2021/10/11 07:18:33;;;;;;;13.70;9.65;;;;;;;;;;5095187;28;20473;-79
2021/10/11 07:21:03;;;;;;;13.02;9.65;;;;;;;;;;5098441;28;20035;-83
2021/10/11 07:23:29;;;;;;;13.43;9.82;;;;;;;;;;5101550;28;20485;-81
2021/10/11 07:25:56;;;;;;;13.00;10.23;;;;;;;;;;5102482;28;20047;-80
2021/10/11 07:28:22;;;;;;;14.32;9.95;;;;;;;;;;5102039;28;20131;-79
2021/10/11 07:30:47;;;;;;;14.48;10.45;;;;;;;;;;5099886;28;20075;-79
2021/10/11 07:33:13;;;;;;;17.17;10.82;;;;;;;;;;5098863;28;20036;-78
2021/10/11 07:35:39;;;;;;;13.90;10.18;;;;;;;;;;5098228;28;20028;-77
2021/10/11 07:38:05;;;;;;;14.43;10.38;;;;;;;;;;5096728;28;20042;-78
2021/10/11 07:40:30;;;;;;;16.35;10.98;;;;;;;;;;5095759;28;20043;-77
2021/10/11 07:42:56;;;;;;;18.08;11.48;;;;;;;;;;5099247;28;20038;-79
2021/10/11 07:45:21;;;;;;;16.63;11.10;;;;;;;;;;5100708;28;20036;-80
2021/10/11 07:47:48;;;;;;;16.98;10.57;;;;;;;;;;5099107;28;20115;-79
2021/10/11 07:50:13;;;;;;;16.45;11.25;;;;;;;;;;5100763;28;20028;-79
2021/10/11 07:52:39;;;;;;;19.83;11.95;;;;;;;;;;5101283;28;20504;-80
2021/10/11 07:55:05;;;;;;;20.20;12.52;;;;;;;;;;5101097;28;20040;-79
2021/10/11 07:57:33;;;;;;;17.42;12.30;;;;;;;;;;5101415;28;20039;-79
2021/10/11 08:00:04;;;;;;;18.00;12.60;;;;;;;;;;5100961;28;20062;-80
2021/10/11 08:02:30;;;;;;;20.23;13.00;;;;;;;;;;5100817;28;20040;-78
2021/10/11 08:04:55;;;;;;;18.25;13.93;;;;;;;;;;5100457;28;20032;-79
2021/10/11 08:07:20;;;;;;;19.05;13.13;;;;;;;;;;5100408;28;20036;-80
2021/10/11 08:09:45;;;;;;;20.80;13.15;;;;;;;;;;5098147;28;20044;-77
2021/10/11 08:12:11;;;;;;;18.60;13.48;;;;;;;;;;5096357;28;20036;-77
2021/10/11 08:14:36;;;;;;;18.80;13.15;;;;;;;;;;5096652;28;20386;-77
2021/10/11 08:17:02;;;;;;;26.88;14.45;;;;;;;;;;5096300;28;20037;-78
2021/10/11 08:19:28;;;;;;;23.52;13.65;;;;;;;;;;5094671;28;20038;-78
2021/10/11 08:21:53;;;;;;;23.77;14.70;;;;;;;;;;5094328;28;20032;-79
2021/10/11 08:24:19;;;;;;;27.05;16.15;;;;;;;;;;5093348;28;20035;-77
2021/10/11 08:26:44;;;;;;;30.90;17.13;;;;;;;;;;5094775;28;20035;-77
2021/10/11 08:29:09;;;;;;;26.20;15.73;;;;;;;;;;5094823;28;20046;-78
2021/10/11 08:31:35;;;;;;;26.95;16.33;;;;;;;;;;5093936;28;20031;-77
2021/10/11 08:34:01;;;;;;;36.25;22.45;;;;;;;;;;5095279;28;20024;-77
2021/10/11 08:36:26;;;;;;;42.85;23.50;;;;;;;;;;5095599;28;20032;-77
2021/10/11 08:38:52;;;;;;;32.17;17.40;;;;;;;;;;5089294;28;20060;-77
2021/10/11 08:41:17;;;;;;;31.45;16.25;;;;;;;;;;5075057;28;20444;-78
2021/10/11 08:43:44;;;;;;;33.50;17.75;;;;;;;;;;5076066;28;20047;-78
2021/10/11 08:46:09;;;;;;;34.67;19.08;;;;;;;;;;5077207;28;20500;-78
2021/10/11 08:48:35;;;;;;;30.85;18.30;;;;;;;;;;5075107;28;20111;-75
2021/10/11 08:51:03;;;;;;;31.15;18.30;;;;;;;;;;5074671;28;20109;-74
2021/10/11 08:53:29;;;;;;;31.50;18.15;;;;;;;;;;5075171;28;20024;-77
2021/10/11 08:55:54;;;;;;;26.77;17.50;;;;;;;;;;5076436;28;20455;-78
2021/10/11 08:58:19;;;;;;;34.20;18.48;;;;;;;;;;5075953;28;20109;-79
2021/10/11 09:00:45;;;;;;;28.27;16.25;;;;;;;;;;5076024;28;20043;-77
2021/10/11 09:03:18;;;;;;;31.80;18.73;;;;;;;;;;5075423;28;20075;-77
2021/10/11 09:05:47;;;;;;;32.45;18.95;;;;;;;;;;5074367;28;20037;-75
2021/10/11 09:08:18;;;;;;;36.78;18.60;;;;;;;;;;5076614;28;20040;-77
2021/10/11 09:10:55;;;;;;;32.10;18.88;;;;;;;;;;5115535;28;20032;-78
2021/10/11 09:13:26;;;;;;;32.25;18.35;;;;;;;;;;5101408;28;20044;-77
2021/10/11 09:16:08;;;;;;;44.20;19.45;;;;;;;;;;5095472;28;20043;-77
2021/10/11 09:18:35;;;;;;;34.20;18.25;;;;;;;;;;5095725;28;20038;-77
2021/10/11 09:21:01;;;;;;;33.75;19.77;;;;;;;;;;5096674;28;20039;-77
2021/10/11 09:23:30;;;;;;;29.52;18.52;;;;;;;;;;5096773;28;20028;-79
2021/10/11 09:25:56;;;;;;;24.85;17.38;;;;;;;;;;5094378;28;20101;-78
2021/10/11 09:28:21;;;;;;;30.05;17.50;;;;;;;;;;5095561;28;20036;-78
2021/10/11 09:30:48;;;;;;;28.17;16.80;;;;;;;;;;5095923;28;20064;-78
2021/10/11 09:33:15;;;;;;;37.78;17.88;;;;;;;;;;5095850;28;20036;-78
2021/10/11 09:35:42;;;;;;;28.88;17.40;;;;;;;;;;5095245;28;20409;-78
2021/10/11 09:38:26;;;;;;;40.15;18.40;;;;;;;;;;5096108;28;20040;-78
2021/10/11 09:40:53;;;;;;;33.67;18.38;;;;;;;;;;5075168;28;20032;-78
2021/10/11 09:43:22;;;;;;;34.50;17.80;;;;;;;;;;5074981;28;20040;-78
2021/10/11 09:45:47;;;;;;;28.27;17.55;;;;;;;;;;5075568;28;20449;-78
2021/10/11 09:48:13;;;;;;;23.85;17.33;;;;;;;;;;5075501;28;20072;-79
2021/10/11 09:50:40;;;;;;;26.52;16.50;;;;;;;;;;5075408;28;20047;-78
2021/10/11 09:53:09;;;;;;;27.75;18.45;;;;;;;;;;5075737;28;20055;-79
2021/10/11 09:55:37;;;;;;;32.38;19.15;;;;;;;;;;5075654;28;20040;-78
2021/10/11 09:58:03;;;;;;;31.05;17.73;;;;;;;;;;5075761;28;20044;-78
2021/10/11 10:00:28;;;;;;;29.40;17.45;;;;;;;;;;5074690;28;20036;-78
2021/10/11 10:02:55;;;;;;;44.25;22.33;;;;;;;;;;5075257;28;20055;-78
2021/10/11 10:05:35;;;;;;;59.10;34.85;;;;;;;;;;5074977;28;20036;-78
2021/10/11 10:08:10;;;;;;;30.65;19.88;;;;;;;;;;5075087;28;20032;-78
2021/10/11 10:10:36;;;;;;;31.23;18.40;;;;;;;;;;5093215;28;20096;-78
2021/10/11 10:13:01;;;;;;;31.70;18.10;;;;;;;;;;5094585;28;20036;-78
2021/10/11 10:15:32;;;;;;;33.03;19.02;;;;;;;;;;5093212;28;20394;-78
2021/10/11 10:18:09;;;;;;;28.60;18.25;;;;;;;;;;5094469;28;20322;-78
2021/10/11 10:20:37;;;;;;;38.75;19.02;;;;;;;;;;5093218;28;20040;-78
2021/10/11 10:23:03;;;;;;;39.40;23.17;;;;;;;;;;5094411;28;20541;-76
2021/10/11 10:25:29;;;;;;;37.50;19.17;;;;;;;;;;5091994;28;20032;-78
2021/10/11 10:28:10;;;;;;;40.25;21.45;;;;;;;;;;5093906;28;20188;-78
2021/10/11 10:30:35;;;;;;;35.90;21.38;;;;;;;;;;5092783;28;20043;-79
2021/10/11 10:33:02;;;;;;;34.53;20.58;;;;;;;;;;5093635;28;20371;-78
2021/10/11 10:35:30;;;;;;;32.22;19.75;;;;;;;;;;5095005;28;20101;-77
2021/10/11 10:37:56;;;;;;;36.45;19.70;;;;;;;;;;5094065;28;20486;-77
2021/10/11 10:40:27;;;;;;;36.13;20.80;;;;;;;;;;5092687;28;20131;-75
2021/10/11 10:43:03;;;;;;;35.17;20.42;;;;;;;;;;5093666;28;20051;-74
2021/10/11 10:45:29;;;;;;;39.25;20.63;;;;;;;;;;5091474;28;20063;-73
2021/10/11 10:47:55;;;;;;;32.00;20.20;;;;;;;;;;5093261;28;20079;-73
2021/10/11 10:50:23;;;;;;;37.17;21.55;;;;;;;;;;5093583;28;20428;-73
2021/10/11 10:52:53;;;;;;;34.78;20.27;;;;;;;;;;5093389;28;20040;-75
2021/10/11 10:55:19;;;;;;;31.08;18.75;;;;;;;;;;5091535;28;20462;-75
2021/10/11 10:57:45;;;;;;;31.25;18.52;;;;;;;;;;5093412;28;20042;-76
2021/10/11 11:00:20;;;;;;;24.90;16.50;;;;;;;;;;5092135;28;20031;-76
2021/10/11 11:02:50;;;;;;;29.75;16.17;;;;;;;;;;5092960;28;20040;-76
2021/10/11 11:05:17;;;;;;;26.95;16.65;;;;;;;;;;5093078;28;20477;-77
2021/10/11 11:07:44;;;;;;;29.50;17.70;;;;;;;;;;5095467;28;20682;-83
2021/10/11 11:10:12;;;;;;;26.80;15.55;;;;;;;;;;5099201;28;20039;-83
2021/10/11 11:12:39;;;;;;;34.10;17.15;;;;;;;;;;5098776;28;20104;-83
2021/10/11 11:15:11;;;;;;;33.42;17.55;;;;;;;;;;5099871;28;20032;-84
2021/10/11 11:17:40;;;;;;;26.95;17.70;;;;;;;;;;5097183;28;20036;-85
2021/10/11 11:20:15;;;;;;;26.40;13.10;;;;;;;;;;5099279;28;20040;-79
2021/10/11 11:22:42;;;;;;;23.88;12.25;;;;;;;;;;5097266;28;20497;-81
2021/10/11 11:25:08;;;;;;;25.17;14.98;;;;;;;;;;5100121;28;20060;-82
2021/10/11 11:27:37;;;;;;;19.77;10.82;;;;;;;;;;5100583;28;20074;-79
2021/10/11 11:30:06;;;;;;;21.15;9.13;;;;;;;;;;5098605;28;20491;-79
2021/10/11 11:32:37;;;;;;;18.75;8.05;;;;;;;;;;5097056;28;20105;-82
2021/10/11 11:35:03;;;;;;;15.02;7.43;;;;;;;;;;5076927;28;20190;-77
2021/10/11 11:37:28;;;;;;;15.32;7.30;;;;;;;;;;5095981;28;20052;-82
2021/10/11 11:40:07;;;;;;;19.65;8.18;;;;;;;;;;5097919;28;20182;-83
2021/10/11 11:42:32;;;;;;;19.70;6.15;;;;;;;;;;5100087;28;20051;-81
2021/10/11 11:44:58;;;;;;;19.23;5.93;;;;;;;;;;5099261;28;20043;-84
2021/10/11 11:47:27;;;;;;;16.20;5.30;;;;;;;;;;5098719;28;20029;-83
2021/10/11 11:49:53;;;;;;;18.27;5.32;;;;;;;;;;5101408;28;20036;-82
2021/10/11 11:52:18;;;;;;;17.27;5.25;;;;;;;;;;5100535;28;20162;-83
2021/10/11 11:54:57;;;;;;;14.88;4.60;;;;;;;;;;5098757;28;20036;-82
2021/10/11 11:57:22;;;;;;;17.48;4.85;;;;;;;;;;5080640;28;20119;-75
2021/10/11 11:59:49;;;;;;;15.93;4.32;;;;;;;;;;5092824;28;20119;-76
2021/10/11 12:02:19;;;;;;;18.45;5.18;;;;;;;;;;5092882;28;20111;-76
2021/10/11 12:04:46;;;;;;;11.27;4.25;;;;;;;;;;5088738;28;20032;-76
2021/10/11 12:07:13;;;;;;;11.00;4.38;;;;;;;;;;5084773;28;20024;-76
2021/10/11 12:09:40;;;;;;;11.77;3.75;;;;;;;;;;5084667;28;20406;-75
2021/10/11 12:12:07;;;;;;;10.65;3.72;;;;;;;;;;5090704;28;20039;-75
2021/10/11 12:14:33;;;;;;;14.93;3.75;;;;;;;;;;5094824;28;20036;-77
2021/10/11 12:17:08;;;;;;;14.23;4.03;;;;;;;;;;5095602;28;20501;-76
2021/10/11 12:19:38;;;;;;;11.98;3.78;;;;;;;;;;5096216;28;20080;-75
2021/10/11 12:22:04;;;;;;;16.45;4.45;;;;;;;;;;5096429;28;20043;-76
2021/10/11 12:24:34;;;;;;;14.80;4.28;;;;;;;;;;5096040;28;20040;-75
2021/10/11 12:27:02;;;;;;;11.82;4.15;;;;;;;;;;5095743;28;20036;-75
2021/10/11 12:29:30;;;;;;;13.32;3.97;;;;;;;;;;5095885;28;20536;-75
2021/10/11 12:31:55;;;;;;;14.10;4.30;;;;;;;;;;5096004;28;20123;-75
2021/10/11 12:34:26;;;;;;;18.58;4.88;;;;;;;;;;5095935;28;20111;-75
2021/10/11 12:36:53;;;;;;;11.73;4.63;;;;;;;;;;5095890;28;20044;-75
2021/10/11 12:39:20;;;;;;;12.32;4.13;;;;;;;;;;5093992;28;20052;-76
2021/10/11 12:41:51;;;;;;;11.07;4.05;;;;;;;;;;5095873;28;20140;-76
2021/10/11 12:44:23;;;;;;;11.95;3.47;;;;;;;;;;5095851;28;20040;-75
2021/10/11 12:46:48;;;;;;;18.27;4.72;;;;;;;;;;5095669;28;20046;-75
2021/10/11 12:49:18;;;;;;;14.15;4.20;;;;;;;;;;5095809;28;20023;-75
2021/10/11 12:51:48;;;;;;;8.75;3.20;;;;;;;;;;5095501;28;20058;-75
2021/10/11 12:54:16;;;;;;;11.43;3.72;;;;;;;;;;5094064;28;20481;-75
2021/10/11 12:56:52;;;;;;;13.90;3.60;;;;;;;;;;5095556;28;20044;-76
2021/10/11 12:59:18;;;;;;;10.38;3.60;;;;;;;;;;5095483;28;20099;-75
2021/10/11 13:01:44;;;;;;;10.27;3.38;;;;;;;;;;5095209;28;20072;-76
2021/10/11 13:04:10;;;;;;;12.80;3.45;;;;;;;;;;5095449;28;20064;-76
2021/10/11 13:06:35;;;;;;;19.10;4.35;;;;;;;;;;5095464;28;20066;-76
2021/10/11 13:09:03;;;;;;;12.88;2.78;;;;;;;;;;5094630;28;20032;-75
2021/10/11 13:11:29;;;;;;;9.77;3.13;;;;;;;;;;5095379;28;20522;-75
2021/10/11 13:13:56;;;;;;;8.68;2.53;;;;;;;;;;5095200;28;20040;-75
2021/10/11 13:16:23;;;;;;;12.93;3.10;;;;;;;;;;5095255;28;20078;-75
2021/10/11 13:18:48;;;;;;;10.95;2.92;;;;;;;;;;5094376;28;20415;-75
2021/10/11 13:21:14;;;;;;;7.75;1.95;;;;;;;;;;5095055;28;20124;-75
2021/10/11 13:23:42;;;;;;;6.93;2.20;;;;;;;;;;5094806;28;20135;-75
2021/10/11 13:26:08;;;;;;;10.85;3.50;;;;;;;;;;5094924;28;20410;-75
2021/10/11 13:28:36;;;;;;;11.38;2.33;;;;;;;;;;5094815;28;20130;-75
2021/10/11 14:26:23;;;;;;;9.73;2.20;;;;;;;;;;5045471;28;20021;-75
2021/10/11 14:28:57;;;;;;;5.97;2.10;;;;;;;;;;5043528;28;20028;-75
2021/10/11 14:31:30;;;;;;;7.03;2.00;;;;;;;;;;5045443;28;20028;-75
2021/10/11 16:00:57;;;;;;;13.00;5.32;;;;;;;;;;5068574;28;20028;-75
2021/10/11 16:04:08;;;;;;;10.63;3.93;;;;;;;;;;5061715;28;20038;-75
2021/10/11 16:06:16;;;;;;;10.77;3.00;;;;;;;;;;5053385;28;20377;-75
2021/10/11 16:08:42;;;;;;;11.43;3.53;;;;;;;;;;5055900;28;20033;-75
2021/10/11 16:11:07;;;;;;;11.23;2.92;;;;;;;;;;5074470;28;20035;-75
2021/10/11 16:13:33;;;;;;;11.93;2.80;;;;;;;;;;5074816;28;20020;-75
2021/10/11 16:15:59;;;;;;;8.35;2.63;;;;;;;;;;5074563;28;20547;-75
2021/10/11 16:18:30;;;;;;;15.07;2.60;;;;;;;;;;5073759;28;20107;-75
2021/10/11 16:20:57;;;;;;;15.68;3.50;;;;;;;;;;5073868;28;20537;-75
2021/10/11 16:23:23;;;;;;;9.43;2.33;;;;;;;;;;5071225;28;20039;-75
2021/10/11 16:25:48;;;;;;;11.35;2.90;;;;;;;;;;5068062;28;20425;-75
2021/10/11 16:28:13;;;;;;;11.75;2.60;;;;;;;;;;5068883;28;20771;-75
2021/10/11 16:30:41;;;;;;;14.95;2.33;;;;;;;;;;5073636;28;20028;-77
2021/10/11 16:33:07;;;;;;;14.90;2.53;;;;;;;;;;5068180;28;20026;-78
2021/10/11 16:35:32;;;;;;;8.55;2.53;;;;;;;;;;5070717;28;20045;-80
2021/10/11 16:37:58;;;;;;;9.35;2.00;;;;;;;;;;5070513;28;20023;-79
2021/10/11 16:40:23;;;;;;;9.82;2.03;;;;;;;;;;5065981;28;20591;-76
2021/10/11 16:42:48;;;;;;;13.57;2.70;;;;;;;;;;5065526;28;20028;-79
2021/10/11 16:45:14;;;;;;;8.40;2.00;;;;;;;;;;5067163;28;20028;-75